createdAt,value
2022-11-23T00:01:26.875Z,9.98
2022-11-23T00:03:56.405Z,5.35
2022-11-23T00:06:24.648Z,8.35
2022-11-23T00:08:52.096Z,5.22
2022-11-23T00:11:19.891Z,6.18
2022-11-23T00:13:46.930Z,10.05
2022-11-23T00:16:19.308Z,7.22
2022-11-23T00:18:46.212Z,5.45
2022-11-23T00:21:15.550Z,4.78
2022-11-23T00:23:42.446Z,6.53
2022-11-23T00:26:08.866Z,6.22
2022-11-23T00:28:38.642Z,4.82
2022-11-23T00:31:06.333Z,5.60
2022-11-23T00:33:33.147Z,7.80
2022-11-23T00:36:06.867Z,5.00
2022-11-23T00:41:02.936Z,7.07
2022-11-23T00:43:30.063Z,6.82
2022-11-23T00:46:03.315Z,2.95
2022-11-23T00:48:30.214Z,5.93
2022-11-23T00:50:57.312Z,9.48
2022-11-23T00:53:23.743Z,4.93
2022-11-23T00:55:54.959Z,8.25
2022-11-23T00:58:21.953Z,5.50
2022-11-23T01:00:48.337Z,7.03
2022-11-23T01:03:15.839Z,6.43
2022-11-23T01:05:42.298Z,6.68
2022-11-23T01:08:09.289Z,6.70
2022-11-23T01:10:35.631Z,5.88
2022-11-23T01:13:02.066Z,5.15
2022-11-23T01:15:28.419Z,6.93
2022-11-23T01:17:54.812Z,6.30
2022-11-23T01:20:21.174Z,6.43
2022-11-23T01:22:47.553Z,8.75
2022-11-23T01:25:15.802Z,6.57
2022-11-23T01:27:42.210Z,7.32
2022-11-23T01:30:09.440Z,6.05
2022-11-23T01:32:35.814Z,9.00
2022-11-23T01:35:02.161Z,6.30
2022-11-23T01:37:28.533Z,6.13
2022-11-23T01:39:54.867Z,4.47
2022-11-23T01:42:21.569Z,10.13
2022-11-23T01:44:48.282Z,8.15
2022-11-23T01:47:14.746Z,4.50
2022-11-23T01:49:44.852Z,5.90
2022-11-23T01:52:24.479Z,10.30
2022-11-23T01:54:56.643Z,6.07
2022-11-23T01:57:32.379Z,7.22
2022-11-23T02:00:00.649Z,5.60
2022-11-23T02:02:30.005Z,6.03
2022-11-23T02:04:58.919Z,4.75
2022-11-23T02:07:28.972Z,8.60
2022-11-23T02:09:55.691Z,5.50
2022-11-23T02:12:22.091Z,8.52
2022-11-23T02:14:48.544Z,6.30
2022-11-23T02:17:17.527Z,6.07
2022-11-23T02:19:55.968Z,10.45
2022-11-23T02:23:05.897Z,6.50
2022-11-23T02:25:45.121Z,10.02
2022-11-23T02:28:24.124Z,6.72
2022-11-23T02:30:54.360Z,6.35
2022-11-23T02:33:23.145Z,5.07
2022-11-23T02:35:52.375Z,7.47
2022-11-23T02:38:20.036Z,7.25
2022-11-23T02:40:46.621Z,8.27
2022-11-23T02:43:13.234Z,6.53
2022-11-23T02:45:48.336Z,6.35
2022-11-23T02:48:15.491Z,8.40
2022-11-23T02:50:41.980Z,6.63
2022-11-23T02:53:08.881Z,6.88
2022-11-23T02:55:35.794Z,6.07
2022-11-23T02:58:03.538Z,7.38
2022-11-23T03:00:30.650Z,5.13
2022-11-23T03:03:02.101Z,7.35
2022-11-23T03:05:28.902Z,8.93
2022-11-23T03:07:55.281Z,7.38
2022-11-23T03:10:21.862Z,7.22
2022-11-23T03:12:53.953Z,7.60
2022-11-23T03:15:20.398Z,7.95
2022-11-23T03:17:47.373Z,6.07
2022-11-23T03:20:15.271Z,6.32
2022-11-23T03:22:44.796Z,6.50
2022-11-23T03:25:13.283Z,4.25
2022-11-23T03:27:39.976Z,10.25
2022-11-23T03:30:08.510Z,5.18
2022-11-23T03:32:36.092Z,8.60
2022-11-23T03:35:04.424Z,5.45
2022-11-23T03:37:32.954Z,5.57
2022-11-23T03:39:59.411Z,6.15
2022-11-23T03:42:54.543Z,6.35
2022-11-23T03:45:21.183Z,7.15
2022-11-23T03:47:47.533Z,6.43
2022-11-23T03:50:14.091Z,7.72
2022-11-23T03:52:40.495Z,6.70
2022-11-23T03:55:07.400Z,7.53
2022-11-23T03:57:34.640Z,6.55
2022-11-23T04:00:03.261Z,5.35
2022-11-23T04:02:39.667Z,9.18
2022-11-23T04:05:10.593Z,9.63
2022-11-23T04:07:56.690Z,7.68
2022-11-23T04:10:24.793Z,5.57
2022-11-23T04:13:06.669Z,6.90
2022-11-23T04:15:33.100Z,7.13
2022-11-23T04:18:00.068Z,7.45
2022-11-23T04:20:26.551Z,6.53
2022-11-23T04:22:53.038Z,5.72
2022-11-23T04:25:19.493Z,4.95
2022-11-23T04:27:48.210Z,9.95
2022-11-23T04:30:15.159Z,5.30
2022-11-23T04:32:45.616Z,6.28
2022-11-23T04:35:14.266Z,3.35
2022-11-23T04:37:42.904Z,7.60
2022-11-23T04:40:10.828Z,5.50
2022-11-23T04:42:41.572Z,9.57
2022-11-23T04:45:08.216Z,7.07
2022-11-23T04:47:35.339Z,5.32
2022-11-23T04:50:06.191Z,7.50
2022-11-23T04:52:33.312Z,7.38
2022-11-23T04:54:59.775Z,7.38
2022-11-23T04:57:26.472Z,6.40
2022-11-23T04:59:52.876Z,8.85
2022-11-23T05:02:19.398Z,6.60
2022-11-23T05:05:02.776Z,6.00
2022-11-23T05:07:29.912Z,9.07
2022-11-23T05:10:00.343Z,6.45
2022-11-23T05:12:26.795Z,5.45
2022-11-23T05:14:53.172Z,7.95
2022-11-23T05:17:24.396Z,4.45
2022-11-23T05:19:53.379Z,6.80
2022-11-23T05:22:20.947Z,6.00
2022-11-23T05:24:47.520Z,7.45
2022-11-23T05:27:18.044Z,4.85
2022-11-23T05:29:45.323Z,9.90
2022-11-23T05:32:11.812Z,7.82
2022-11-23T05:34:38.575Z,3.78
2022-11-23T05:37:05.687Z,4.28
2022-11-23T05:39:32.657Z,4.00
2022-11-23T05:42:00.668Z,5.32
2022-11-23T05:44:35.572Z,5.75
2022-11-23T05:47:03.260Z,8.10
2022-11-23T05:49:32.301Z,4.22
2022-11-23T05:52:00.205Z,5.03
2022-11-23T05:54:28.280Z,6.70
2022-11-23T05:57:01.360Z,5.35
2022-11-23T05:59:39.731Z,4.95
2022-11-23T06:02:07.935Z,6.30
2022-11-23T06:04:36.057Z,6.13
2022-11-23T06:07:05.190Z,5.53
2022-11-23T06:09:50.138Z,6.70
2022-11-23T06:12:16.665Z,4.18
2022-11-23T06:14:44.171Z,4.88
2022-11-23T06:17:12.358Z,6.80
2022-11-23T06:19:43.348Z,5.50
2022-11-23T06:22:11.334Z,5.63
2022-11-23T06:24:44.568Z,4.75
2022-11-23T06:27:29.485Z,3.42
2022-11-23T06:29:56.151Z,6.80
2022-11-23T06:32:24.787Z,4.05
2022-11-23T06:34:51.481Z,9.45
2022-11-23T06:37:17.860Z,7.63
2022-11-23T06:39:50.744Z,5.70
2022-11-23T06:42:37.699Z,5.78
2022-11-23T06:45:04.557Z,4.60
2022-11-23T06:47:31.057Z,8.30
2022-11-23T06:49:57.886Z,3.70
2022-11-23T06:52:27.687Z,5.80
2022-11-23T06:54:54.657Z,8.10
2022-11-23T06:57:23.111Z,5.60
2022-11-23T06:59:49.731Z,5.20
2022-11-23T07:02:21.026Z,10.98
2022-11-23T07:04:47.963Z,7.28
2022-11-23T07:07:17.015Z,6.03
2022-11-23T07:09:49.831Z,7.45
2022-11-23T07:12:21.941Z,3.87
2022-11-23T07:14:48.322Z,9.38
2022-11-23T07:17:17.373Z,6.20
2022-11-23T07:19:44.516Z,7.60
2022-11-23T07:22:10.870Z,7.47
2022-11-23T07:24:42.658Z,8.77
2022-11-23T07:29:38.274Z,8.57
2022-11-23T07:32:06.770Z,6.25
2022-11-23T07:34:33.180Z,7.82
2022-11-23T07:37:02.140Z,8.45
2022-11-23T07:39:55.152Z,5.88
2022-11-23T07:42:32.720Z,3.20
2022-11-23T07:45:01.293Z,7.28
2022-11-23T07:47:27.681Z,5.55
2022-11-23T07:49:54.220Z,5.63
2022-11-23T07:52:20.554Z,6.57
2022-11-23T07:54:46.964Z,4.35
2022-11-23T07:57:13.360Z,6.35
2022-11-23T07:59:40.893Z,8.18
2022-11-23T08:02:10.624Z,5.03
2022-11-23T08:04:37.050Z,7.68
2022-11-23T08:07:03.961Z,4.57
2022-11-23T08:09:30.670Z,3.58
2022-11-23T08:11:57.116Z,5.55
2022-11-23T08:14:23.802Z,6.53
2022-11-23T08:16:51.268Z,5.47
2022-11-23T08:19:18.123Z,5.70
2022-11-23T08:21:45.311Z,5.25
2022-11-23T08:24:12.307Z,6.78
2022-11-23T08:26:38.661Z,4.55
2022-11-23T08:29:05.846Z,3.75
2022-11-23T08:31:32.804Z,4.68
2022-11-23T08:34:03.259Z,4.45
2022-11-23T08:36:30.361Z,8.20
2022-11-23T08:38:56.838Z,6.38
2022-11-23T08:41:23.386Z,5.90
2022-11-23T08:43:52.840Z,7.97
2022-11-23T08:46:19.563Z,7.20
2022-11-23T08:48:45.935Z,4.03
2022-11-23T08:51:12.489Z,8.13
2022-11-23T08:53:39.175Z,5.97
2022-11-23T08:56:07.335Z,7.90
2022-11-23T08:58:33.779Z,4.65
2022-11-23T09:01:00.371Z,5.25
2022-11-23T09:03:26.701Z,6.85
2022-11-23T09:05:54.466Z,6.32
2022-11-23T09:08:20.859Z,7.82
2022-11-23T09:10:47.253Z,6.65
2022-11-23T09:13:13.587Z,7.28
2022-11-23T09:15:39.971Z,11.27
2022-11-23T09:18:06.383Z,5.05
2022-11-23T09:20:32.751Z,6.50
2022-11-23T09:23:00.865Z,6.35
2022-11-23T09:25:29.226Z,11.80
2022-11-23T09:28:04.249Z,8.80
2022-11-23T09:30:30.614Z,6.57
2022-11-23T09:32:57.859Z,7.88
2022-11-23T09:35:25.389Z,7.85
2022-11-23T09:37:57.224Z,3.70
2022-11-23T09:40:25.248Z,4.85
2022-11-23T09:43:14.923Z,3.88
2022-11-23T09:45:50.032Z,4.90
2022-11-23T09:48:32.797Z,5.72
2022-11-23T09:51:11.709Z,5.53
2022-11-23T09:54:00.534Z,8.63
2022-11-23T09:56:33.630Z,6.88
2022-11-23T09:59:10.884Z,6.03
2022-11-23T10:01:38.602Z,6.65
2022-11-23T10:04:06.251Z,5.28
2022-11-23T10:06:40.158Z,9.25
2022-11-23T10:09:36.860Z,7.47
2022-11-23T10:12:21.931Z,5.13
2022-11-23T10:15:04.497Z,5.20
2022-11-23T10:18:06.453Z,3.60
2022-11-23T10:20:51.809Z,6.53
2022-11-23T10:23:30.098Z,9.35
2022-11-23T10:25:57.097Z,5.95
2022-11-23T10:28:24.121Z,7.95
2022-11-23T10:31:14.138Z,6.30
2022-11-23T10:34:09.025Z,7.43
2022-11-23T10:36:36.701Z,6.60
2022-11-23T10:39:17.545Z,3.85
2022-11-23T10:41:46.173Z,9.32
2022-11-23T10:44:26.409Z,7.90
2022-11-23T10:46:52.883Z,5.40
2022-11-23T10:49:26.031Z,9.20
2022-11-23T10:52:05.423Z,4.00
2022-11-23T10:54:47.041Z,7.55
2022-11-23T10:57:42.345Z,5.60
2022-11-23T11:00:15.497Z,5.97
2022-11-23T11:02:50.370Z,8.15
2022-11-23T11:06:07.644Z,6.00
2022-11-23T11:08:28.943Z,5.97
2022-11-23T11:11:29.051Z,7.50
2022-11-23T11:14:19.254Z,5.43
2022-11-23T11:16:50.655Z,9.30
2022-11-23T11:19:30.075Z,7.95
2022-11-23T11:21:58.691Z,7.32
2022-11-23T11:24:33.384Z,5.95
2022-11-23T11:27:02.766Z,4.22
2022-11-23T11:29:39.083Z,5.88
2022-11-23T11:32:23.601Z,7.50
2022-11-23T11:35:19.126Z,4.03
2022-11-23T11:37:51.007Z,4.30
2022-11-23T11:40:17.459Z,6.03
2022-11-23T11:42:49.814Z,7.35
2022-11-23T11:45:22.447Z,4.35
2022-11-23T11:47:59.942Z,5.38
2022-11-23T11:50:38.688Z,3.83
2022-11-23T11:53:10.829Z,9.77
2022-11-23T11:55:52.280Z,3.13
2022-11-23T11:58:21.931Z,4.22
2022-11-23T12:00:49.754Z,10.95
2022-11-23T12:03:42.872Z,4.90
2022-11-23T12:06:54.602Z,5.93
2022-11-23T12:09:26.468Z,5.50
2022-11-23T12:11:52.934Z,7.35
2022-11-23T12:14:19.781Z,4.05
2022-11-23T12:17:32.843Z,2.72
2022-11-23T12:20:15.365Z,5.53
2022-11-23T12:23:14.228Z,4.38
2022-11-23T12:25:47.722Z,4.70
2022-11-23T12:28:23.303Z,4.97
2022-11-23T12:31:10.564Z,4.65
2022-11-23T12:33:55.589Z,5.20
2022-11-23T12:36:33.889Z,8.90
2022-11-23T12:39:35.016Z,7.20
2022-11-23T12:42:08.860Z,5.15
2022-11-23T12:45:06.287Z,5.10
2022-11-23T12:47:49.643Z,5.18
2022-11-23T12:50:38.645Z,4.57
2022-11-23T12:53:23.658Z,7.13
2022-11-23T12:56:20.244Z,3.08
2022-11-23T12:58:48.732Z,3.47
2022-11-23T13:01:35.116Z,4.43
2022-11-23T13:04:51.080Z,5.15
2022-11-23T13:07:49.730Z,7.35
2022-11-23T13:10:17.323Z,5.72
2022-11-23T13:12:55.975Z,6.28
2022-11-23T13:15:31.528Z,7.80
2022-11-23T13:18:26.668Z,6.30
2022-11-23T13:21:17.508Z,5.50
2022-11-23T13:23:44.173Z,5.45
2022-11-23T13:26:24.265Z,5.20
2022-11-23T13:28:52.977Z,5.50
2022-11-23T13:31:31.405Z,7.55
2022-11-23T13:34:01.302Z,3.90
2022-11-23T13:36:56.393Z,8.93
2022-11-23T13:39:51.461Z,6.07
2022-11-23T13:42:18.677Z,3.30
2022-11-23T13:44:45.117Z,5.68
2022-11-23T13:47:17.293Z,3.40
2022-11-23T13:49:46.149Z,4.93
2022-11-23T13:52:21.438Z,7.70
2022-11-23T13:55:07.379Z,4.60
2022-11-23T13:57:43.726Z,7.80
2022-11-23T14:00:45.379Z,6.90
2022-11-23T14:03:49.100Z,5.00
2022-11-23T14:06:24.507Z,5.50
2022-11-23T14:09:06.286Z,7.47
2022-11-23T14:11:41.991Z,8.15
2022-11-23T14:14:18.955Z,6.80
2022-11-23T14:17:02.478Z,3.90
2022-11-23T14:19:50.701Z,4.57
2022-11-23T14:23:02.145Z,6.78
2022-11-23T14:25:37.432Z,6.13
2022-11-23T14:28:22.594Z,8.38
2022-11-23T14:31:09.183Z,4.78
2022-11-23T14:33:55.495Z,7.20
2022-11-23T14:36:49.270Z,5.25
2022-11-23T14:39:40.301Z,3.90
2022-11-23T14:42:28.275Z,2.65
2022-11-23T14:44:57.906Z,5.38
2022-11-23T14:47:30.586Z,2.65
2022-11-23T14:49:57.484Z,2.88
2022-11-23T14:52:26.179Z,4.28
2022-11-23T14:54:55.629Z,9.30
2022-11-23T14:57:24.704Z,5.10
2022-11-23T15:00:00.402Z,6.97
2022-11-23T15:02:37.654Z,3.75
2022-11-23T15:05:25.331Z,3.05
2022-11-23T15:07:57.280Z,4.57
2022-11-23T15:10:45.839Z,6.70
2022-11-23T15:13:21.664Z,4.15
2022-11-23T15:15:55.103Z,4.40
2022-11-23T15:18:39.300Z,3.95
2022-11-23T15:21:11.888Z,2.97
2022-11-23T15:23:53.031Z,7.32
2022-11-23T15:26:48.084Z,1.98
2022-11-23T15:29:32.326Z,5.05
2022-11-23T15:32:29.869Z,7.88
2022-11-23T15:34:46.458Z,5.25
2022-11-23T15:37:13.286Z,5.82
2022-11-23T15:39:40.023Z,5.03
2022-11-23T15:42:07.107Z,4.00
2022-11-23T15:44:35.714Z,3.67
2022-11-23T15:47:07.010Z,5.13
2022-11-23T15:49:40.762Z,3.45
2022-11-23T15:52:13.550Z,5.32
2022-11-23T15:54:40.026Z,3.25
2022-11-23T15:57:09.766Z,5.13
2022-11-23T15:59:45.050Z,4.00
2022-11-23T16:02:23.084Z,6.18
2022-11-23T16:05:03.280Z,6.93
2022-11-23T16:07:30.134Z,5.18
2022-11-23T16:10:19.715Z,5.82
2022-11-23T16:12:49.775Z,3.13
2022-11-23T16:15:34.372Z,6.15
2022-11-23T16:18:02.218Z,12.02
2022-11-23T16:20:29.370Z,10.63
2022-11-23T16:22:59.251Z,13.77
2022-11-23T16:25:31.902Z,9.93
2022-11-23T16:28:14.634Z,10.00
2022-11-23T16:30:46.311Z,5.95
2022-11-23T16:33:18.028Z,7.88
2022-11-23T16:35:45.208Z,9.23
2022-11-23T16:38:12.590Z,9.05
2022-11-23T16:40:39.868Z,8.70
2022-11-23T16:43:06.457Z,7.72
2022-11-23T16:45:32.970Z,9.15
2022-11-23T16:48:01.860Z,6.57
2022-11-23T16:50:33.864Z,7.43
2022-11-23T16:53:14.322Z,8.40
2022-11-23T16:55:43.565Z,8.93
2022-11-23T16:58:14.271Z,11.60
2022-11-23T17:00:40.712Z,13.52
2022-11-23T17:03:20.590Z,17.02
2022-11-23T17:05:47.812Z,15.98
2022-11-23T17:08:19.762Z,12.80
2022-11-23T17:10:49.851Z,19.10
2022-11-23T17:13:28.794Z,20.92
2022-11-23T17:15:56.038Z,36.05
2022-11-23T17:18:22.593Z,28.73
2022-11-23T17:20:49.151Z,12.55
2022-11-23T17:23:15.484Z,10.82
2022-11-23T17:25:42.058Z,6.32
2022-11-23T17:28:17.140Z,7.05
2022-11-23T17:30:44.068Z,4.80
2022-11-23T17:33:11.730Z,6.63
2022-11-23T17:35:38.634Z,7.45
2022-11-23T17:38:06.115Z,7.10
2022-11-23T17:40:32.523Z,8.73
2022-11-23T17:42:59.000Z,6.13
2022-11-23T17:45:25.451Z,22.92
2022-11-23T17:47:51.897Z,12.07
2022-11-23T17:50:19.335Z,8.90
2022-11-23T17:52:47.193Z,9.60
2022-11-23T17:55:14.523Z,12.85
2022-11-23T17:57:41.220Z,12.07
2022-11-23T18:00:15.921Z,11.18
2022-11-23T18:02:42.504Z,11.13
2022-11-23T18:05:09.623Z,5.95
2022-11-23T18:07:36.752Z,7.75
2022-11-23T18:10:04.004Z,10.52
2022-11-23T18:12:30.424Z,19.10
2022-11-23T18:14:56.760Z,9.50
2022-11-23T18:17:23.884Z,20.42
2022-11-23T18:19:50.261Z,12.90
2022-11-23T18:22:16.690Z,11.27
2022-11-23T18:24:43.077Z,10.32
2022-11-23T18:27:09.508Z,15.52
2022-11-23T18:29:36.501Z,16.42
2022-11-23T18:32:04.311Z,16.20
2022-11-23T18:34:30.634Z,10.80
2022-11-23T18:36:57.188Z,13.27
2022-11-23T18:39:23.688Z,9.95
2022-11-23T18:41:50.073Z,8.35
2022-11-23T18:44:16.520Z,8.23
2022-11-23T18:46:44.741Z,3.88
2022-11-23T18:49:11.963Z,3.97
2022-11-23T18:51:38.865Z,9.18
2022-11-23T18:54:05.421Z,4.95
2022-11-23T18:56:31.829Z,4.25
2022-11-23T18:58:58.300Z,4.13
2022-11-23T19:01:25.000Z,2.08
2022-11-23T19:03:52.871Z,4.88
2022-11-23T19:06:21.599Z,4.47
2022-11-23T19:08:58.831Z,11.63
2022-11-23T19:11:27.232Z,19.13
2022-11-23T19:13:55.892Z,16.70
2022-11-23T19:16:28.718Z,13.30
2022-11-23T19:19:06.541Z,10.07
2022-11-23T19:21:34.779Z,7.47
2022-11-23T19:24:01.562Z,8.80
2022-11-23T19:26:29.452Z,6.95
2022-11-23T19:28:56.593Z,9.00
2022-11-23T19:31:28.426Z,5.75
2022-11-23T19:34:00.677Z,8.20
2022-11-23T19:36:29.349Z,6.97
2022-11-23T19:38:57.181Z,6.30
2022-11-23T19:41:29.588Z,5.70
2022-11-23T19:43:58.769Z,7.03
2022-11-23T19:46:25.379Z,5.78
2022-11-23T19:48:51.784Z,4.60
2022-11-23T19:51:20.026Z,6.40
2022-11-23T19:53:49.032Z,4.18
2022-11-23T19:56:20.945Z,5.80
2022-11-23T19:58:51.586Z,4.85
2022-11-23T20:01:20.915Z,6.03
2022-11-23T20:03:49.762Z,6.03
2022-11-23T20:06:28.079Z,4.82
2022-11-23T20:09:04.269Z,5.85
2022-11-23T20:11:31.920Z,5.35
2022-11-23T20:13:58.745Z,3.42
2022-11-23T20:16:27.323Z,3.20
2022-11-23T20:18:56.893Z,4.78
2022-11-23T20:21:23.767Z,4.25
2022-11-23T20:24:03.018Z,4.03
2022-11-23T20:26:31.588Z,3.08
2022-11-23T20:28:58.560Z,5.75
2022-11-23T20:31:27.490Z,5.00
2022-11-23T20:33:54.596Z,3.60
2022-11-23T20:36:23.420Z,6.38
2022-11-23T20:38:51.786Z,3.95
2022-11-23T20:41:20.012Z,6.97
2022-11-23T20:43:48.349Z,7.05
2022-11-23T20:46:31.667Z,6.18
2022-11-23T20:49:02.645Z,4.88
2022-11-23T20:51:29.482Z,4.03
2022-11-23T20:53:59.787Z,5.20
2022-11-23T20:56:27.492Z,6.80
2022-11-23T20:58:56.660Z,5.03
2022-11-23T21:01:23.842Z,6.82
2022-11-23T21:03:53.784Z,3.88
2022-11-23T21:06:21.672Z,5.18
2022-11-23T21:08:49.369Z,6.57
2022-11-23T21:11:37.902Z,6.95
2022-11-23T21:14:06.804Z,6.35
2022-11-23T21:16:40.491Z,6.10
2022-11-23T21:19:09.485Z,4.57
2022-11-23T21:21:37.127Z,5.88
2022-11-23T21:24:04.643Z,5.60
2022-11-23T21:26:31.487Z,6.20
2022-11-23T21:28:58.168Z,5.57
2022-11-23T21:31:25.824Z,5.25
2022-11-23T21:33:54.189Z,4.15
2022-11-23T21:36:22.302Z,5.25
2022-11-23T21:38:48.747Z,4.65
2022-11-23T21:41:17.915Z,4.60
2022-11-23T21:43:51.302Z,7.90
2022-11-23T21:46:18.543Z,5.53
2022-11-23T21:48:44.908Z,5.32
2022-11-23T21:51:15.416Z,4.88
2022-11-23T21:53:41.947Z,6.75
2022-11-23T21:56:14.411Z,4.32
2022-11-23T21:58:41.636Z,3.72
2022-11-23T22:01:11.529Z,6.00
2022-11-23T22:03:39.489Z,3.88
2022-11-23T22:06:06.663Z,4.60
2022-11-23T22:08:34.125Z,5.25
2022-11-23T22:11:16.223Z,4.85
2022-11-23T22:13:43.867Z,6.10
2022-11-23T22:16:14.379Z,4.78
2022-11-23T22:18:40.891Z,4.90
2022-11-23T22:21:07.285Z,5.68
2022-11-23T22:23:33.829Z,4.00
2022-11-23T22:26:09.216Z,7.72
2022-11-23T22:28:38.558Z,4.80
2022-11-23T22:31:05.905Z,5.57
2022-11-23T22:33:33.107Z,5.03
2022-11-23T22:36:05.619Z,5.43
2022-11-23T22:38:32.727Z,4.93
2022-11-23T22:41:00.552Z,5.25
2022-11-23T22:43:27.858Z,4.80
2022-11-23T22:45:54.522Z,6.88
2022-11-23T22:48:21.276Z,7.22
2022-11-23T22:51:03.928Z,4.97
2022-11-23T22:53:30.587Z,4.75
2022-11-23T22:56:04.722Z,6.10
2022-11-23T22:58:32.206Z,5.60
2022-11-23T23:01:06.496Z,4.00
2022-11-23T23:03:33.470Z,4.20
2022-11-23T23:05:59.975Z,4.32
2022-11-23T23:08:27.663Z,3.08
2022-11-23T23:10:54.396Z,4.70
2022-11-23T23:13:21.757Z,4.38
2022-11-23T23:15:48.811Z,5.20
2022-11-23T23:18:16.199Z,5.10
2022-11-23T23:20:42.678Z,6.20
2022-11-23T23:23:09.281Z,5.70
2022-11-23T23:25:35.655Z,4.40
2022-11-23T23:28:02.210Z,3.75
2022-11-23T23:30:28.553Z,3.72
2022-11-23T23:32:57.999Z,5.03
2022-11-23T23:35:24.344Z,5.32
2022-11-23T23:37:51.355Z,4.78
2022-11-23T23:40:17.881Z,4.55
2022-11-23T23:42:44.373Z,5.70
2022-11-23T23:45:10.937Z,4.68
2022-11-23T23:47:37.798Z,4.03
2022-11-23T23:50:04.784Z,3.83
2022-11-23T23:52:31.367Z,6.53
2022-11-23T23:54:57.718Z,4.68
2022-11-23T23:57:24.143Z,4.05
2022-11-23T23:59:50.464Z,6.03
